sensor_id;sensor_type;location;lat;lon;timestamp;P1;durP1;ratioP1;P2;durP2;ratioP2
44516;SDS011;30223;17.182;-96.766;2023-02-11T00:03:55;32.55;;;18.83;;
44516;SDS011;30223;17.182;-96.766;2023-02-11T00:06:23;30.77;;;17.90;;
44516;SDS011;30223;17.182;-96.766;2023-02-11T00:08:52;24.70;;;17.88;;
44516;SDS011;30223;17.182;-96.766;2023-02-11T00:11:19;27.00;;;18.70;;
44516;SDS011;30223;17.182;-96.766;2023-02-11T00:13:47;29.08;;;17.63;;
44516;SDS011;30223;17.182;-96.766;2023-02-11T00:16:18;22.85;;;15.10;;
44516;SDS011;30223;17.182;-96.766;2023-02-11T00:18:45;23.67;;;14.65;;
44516;SDS011;30223;17.182;-96.766;2023-02-11T00:21:13;23.48;;;15.25;;
44516;SDS011;30223;17.182;-96.766;2023-02-11T00:23:44;28.17;;;16.77;;
44516;SDS011;30223;17.182;-96.766;2023-02-11T00:26:14;23.48;;;16.25;;
44516;SDS011;30223;17.182;-96.766;2023-02-11T00:28:43;25.65;;;15.93;;
44516;SDS011;30223;17.182;-96.766;2023-02-11T00:31:10;25.48;;;14.52;;
44516;SDS011;30223;17.182;-96.766;2023-02-11T00:33:38;21.77;;;14.60;;
44516;SDS011;30223;17.182;-96.766;2023-02-11T00:36:05;21.67;;;14.73;;
44516;SDS011;30223;17.182;-96.766;2023-02-11T00:38:33;20.27;;;13.15;;
44516;SDS011;30223;17.182;-96.766;2023-02-11T00:41:00;19.10;;;13.45;;
44516;SDS011;30223;17.182;-96.766;2023-02-11T00:43:26;19.00;;;12.75;;
44516;SDS011;30223;17.182;-96.766;2023-02-11T00:45:53;19.70;;;12.35;;
44516;SDS011;30223;17.182;-96.766;2023-02-11T00:48:20;22.65;;;13.68;;
44516;SDS011;30223;17.182;-96.766;2023-02-11T00:50:46;17.50;;;12.23;;
44516;SDS011;30223;17.182;-96.766;2023-02-11T00:53:13;19.50;;;11.52;;
44516;SDS011;30223;17.182;-96.766;2023-02-11T00:55:39;16.00;;;10.40;;
44516;SDS011;30223;17.182;-96.766;2023-02-11T00:58:06;14.95;;;10.45;;
44516;SDS011;30223;17.182;-96.766;2023-02-11T01:00:32;15.35;;;11.02;;
44516;SDS011;30223;17.182;-96.766;2023-02-11T01:02:59;16.50;;;11.38;;
44516;SDS011;30223;17.182;-96.766;2023-02-11T01:05:26;15.25;;;9.43;;
44516;SDS011;30223;17.182;-96.766;2023-02-11T01:07:53;15.10;;;9.48;;
44516;SDS011;30223;17.182;-96.766;2023-02-11T01:10:19;17.02;;;10.70;;
44516;SDS011;30223;17.182;-96.766;2023-02-11T01:12:46;12.70;;;9.05;;
44516;SDS011;30223;17.182;-96.766;2023-02-11T01:15:14;14.18;;;8.73;;
44516;SDS011;30223;17.182;-96.766;2023-02-11T01:17:42;18.75;;;9.32;;
44516;SDS011;30223;17.182;-96.766;2023-02-11T01:20:14;11.77;;;8.65;;
44516;SDS011;30223;17.182;-96.766;2023-02-11T01:22:44;12.15;;;7.60;;
44516;SDS011;30223;17.182;-96.766;2023-02-11T01:25:10;14.82;;;8.60;;
44516;SDS011;30223;17.182;-96.766;2023-02-11T01:27:37;14.45;;;8.50;;
44516;SDS011;30223;17.182;-96.766;2023-02-11T01:30:04;11.63;;;9.18;;
44516;SDS011;30223;17.182;-96.766;2023-02-11T01:32:33;11.27;;;7.75;;
44516;SDS011;30223;17.182;-96.766;2023-02-11T01:35:00;11.23;;;7.88;;
44516;SDS011;30223;17.182;-96.766;2023-02-11T01:37:27;15.02;;;8.77;;
44516;SDS011;30223;17.182;-96.766;2023-02-11T01:39:54;12.48;;;8.10;;
44516;SDS011;30223;17.182;-96.766;2023-02-11T01:42:21;14.73;;;7.90;;
44516;SDS011;30223;17.182;-96.766;2023-02-11T01:44:49;10.77;;;8.67;;
44516;SDS011;30223;17.182;-96.766;2023-02-11T01:47:17;13.20;;;8.75;;
44516;SDS011;30223;17.182;-96.766;2023-02-11T01:49:49;13.10;;;8.45;;
44516;SDS011;30223;17.182;-96.766;2023-02-11T01:52:31;9.32;;;7.55;;
44516;SDS011;30223;17.182;-96.766;2023-02-11T01:55:10;11.45;;;7.82;;
44516;SDS011;30223;17.182;-96.766;2023-02-11T01:57:59;9.60;;;7.18;;
44516;SDS011;30223;17.182;-96.766;2023-02-11T02:00:34;9.27;;;7.20;;
44516;SDS011;30223;17.182;-96.766;2023-02-11T02:03:16;9.07;;;7.35;;
44516;SDS011;30223;17.182;-96.766;2023-02-11T02:08:22;10.02;;;6.10;;
44516;SDS011;30223;17.182;-96.766;2023-02-11T02:10:54;10.43;;;7.78;;
44516;SDS011;30223;17.182;-96.766;2023-02-11T02:13:26;10.43;;;7.88;;
44516;SDS011;30223;17.182;-96.766;2023-02-11T02:15:55;9.93;;;6.80;;
44516;SDS011;30223;17.182;-96.766;2023-02-11T02:35:39;8.10;;;6.70;;
44516;SDS011;30223;17.182;-96.766;2023-02-11T02:38:18;9.65;;;6.85;;
44516;SDS011;30223;17.182;-96.766;2023-02-11T02:41:07;11.90;;;6.75;;
44516;SDS011;30223;17.182;-96.766;2023-02-11T02:43:39;13.18;;;6.95;;
44516;SDS011;30223;17.182;-96.766;2023-02-11T02:46:17;9.85;;;7.10;;
44516;SDS011;30223;17.182;-96.766;2023-02-11T02:48:50;9.05;;;6.82;;
44516;SDS011;30223;17.182;-96.766;2023-02-11T03:06:06;7.25;;;5.85;;
44516;SDS011;30223;17.182;-96.766;2023-02-11T03:08:47;8.32;;;6.72;;
44516;SDS011;30223;17.182;-96.766;2023-02-11T03:11:32;8.93;;;6.00;;
44516;SDS011;30223;17.182;-96.766;2023-02-11T03:14:05;9.07;;;6.28;;
44516;SDS011;30223;17.182;-96.766;2023-02-11T03:16:41;7.88;;;6.65;;
44516;SDS011;30223;17.182;-96.766;2023-02-11T03:19:17;7.75;;;5.25;;
44516;SDS011;30223;17.182;-96.766;2023-02-11T03:22:16;8.02;;;6.10;;
44516;SDS011;30223;17.182;-96.766;2023-02-11T03:24:52;6.97;;;5.13;;
44516;SDS011;30223;17.182;-96.766;2023-02-11T03:27:32;9.25;;;6.97;;
44516;SDS011;30223;17.182;-96.766;2023-02-11T03:30:10;8.95;;;5.63;;
44516;SDS011;30223;17.182;-96.766;2023-02-11T03:33:04;7.60;;;5.63;;
44516;SDS011;30223;17.182;-96.766;2023-02-11T03:36:06;6.07;;;5.32;;
44516;SDS011;30223;17.182;-96.766;2023-02-11T03:38:47;6.65;;;5.72;;
44516;SDS011;30223;17.182;-96.766;2023-02-11T03:41:19;8.90;;;5.43;;
44516;SDS011;30223;17.182;-96.766;2023-02-11T03:43:52;9.95;;;6.05;;
44516;SDS011;30223;17.182;-96.766;2023-02-11T03:46:33;8.20;;;6.18;;
44516;SDS011;30223;17.182;-96.766;2023-02-11T03:49:08;9.88;;;5.78;;
44516;SDS011;30223;17.182;-96.766;2023-02-11T03:51:47;10.13;;;7.53;;
44516;SDS011;30223;17.182;-96.766;2023-02-11T03:54:26;9.02;;;6.35;;
44516;SDS011;30223;17.182;-96.766;2023-02-11T03:56:59;8.75;;;5.65;;
44516;SDS011;30223;17.182;-96.766;2023-02-11T03:59:27;9.23;;;6.30;;
44516;SDS011;30223;17.182;-96.766;2023-02-11T04:02:01;10.50;;;6.43;;
44516;SDS011;30223;17.182;-96.766;2023-02-11T04:04:40;10.35;;;6.15;;
44516;SDS011;30223;17.182;-96.766;2023-02-11T04:07:13;8.02;;;6.28;;
44516;SDS011;30223;17.182;-96.766;2023-02-11T04:09:53;7.95;;;6.10;;
44516;SDS011;30223;17.182;-96.766;2023-02-11T04:12:26;12.80;;;6.75;;
44516;SDS011;30223;17.182;-96.766;2023-02-11T04:14:56;10.75;;;6.10;;
44516;SDS011;30223;17.182;-96.766;2023-02-11T04:17:26;9.18;;;5.80;;
44516;SDS011;30223;17.182;-96.766;2023-02-11T04:20:04;8.77;;;6.03;;
44516;SDS011;30223;17.182;-96.766;2023-02-11T04:22:34;9.30;;;6.05;;
44516;SDS011;30223;17.182;-96.766;2023-02-11T04:25:09;7.80;;;5.82;;
44516;SDS011;30223;17.182;-96.766;2023-02-11T04:27:55;12.00;;;6.43;;
44516;SDS011;30223;17.182;-96.766;2023-02-11T04:30:31;9.88;;;5.82;;
44516;SDS011;30223;17.182;-96.766;2023-02-11T04:33:08;6.72;;;5.55;;
44516;SDS011;30223;17.182;-96.766;2023-02-11T04:35:38;8.07;;;6.18;;
44516;SDS011;30223;17.182;-96.766;2023-02-11T04:38:18;9.20;;;6.53;;
44516;SDS011;30223;17.182;-96.766;2023-02-11T04:40:48;8.05;;;5.88;;
44516;SDS011;30223;17.182;-96.766;2023-02-11T04:43:19;11.15;;;6.47;;
44516;SDS011;30223;17.182;-96.766;2023-02-11T04:45:58;7.50;;;5.53;;
44516;SDS011;30223;17.182;-96.766;2023-02-11T04:48:28;9.35;;;6.03;;
44516;SDS011;30223;17.182;-96.766;2023-02-11T04:51:02;9.25;;;6.57;;
44516;SDS011;30223;17.182;-96.766;2023-02-11T04:53:32;7.10;;;5.53;;
44516;SDS011;30223;17.182;-96.766;2023-02-11T04:56:04;11.55;;;6.28;;
44516;SDS011;30223;17.182;-96.766;2023-02-11T04:58:35;9.15;;;6.15;;
44516;SDS011;30223;17.182;-96.766;2023-02-11T05:01:11;8.98;;;5.72;;
44516;SDS011;30223;17.182;-96.766;2023-02-11T05:03:43;8.07;;;5.68;;
44516;SDS011;30223;17.182;-96.766;2023-02-11T05:06:11;9.30;;;5.97;;
44516;SDS011;30223;17.182;-96.766;2023-02-11T05:08:41;12.38;;;6.45;;
44516;SDS011;30223;17.182;-96.766;2023-02-11T05:11:15;8.32;;;6.30;;
44516;SDS011;30223;17.182;-96.766;2023-02-11T05:13:45;8.57;;;5.85;;
44516;SDS011;30223;17.182;-96.766;2023-02-11T05:16:16;11.20;;;5.57;;
44516;SDS011;30223;17.182;-96.766;2023-02-11T05:18:47;9.15;;;6.35;;
44516;SDS011;30223;17.182;-96.766;2023-02-11T05:21:20;9.27;;;6.60;;
44516;SDS011;30223;17.182;-96.766;2023-02-11T05:23:53;7.55;;;6.22;;
44516;SDS011;30223;17.182;-96.766;2023-02-11T05:26:27;8.20;;;6.03;;
44516;SDS011;30223;17.182;-96.766;2023-02-11T05:29:01;11.68;;;6.38;;
44516;SDS011;30223;17.182;-96.766;2023-02-11T05:31:31;8.60;;;6.35;;
44516;SDS011;30223;17.182;-96.766;2023-02-11T05:34:02;7.80;;;6.28;;
44516;SDS011;30223;17.182;-96.766;2023-02-11T05:36:32;8.82;;;6.45;;
44516;SDS011;30223;17.182;-96.766;2023-02-11T05:39:08;6.53;;;5.15;;
44516;SDS011;30223;17.182;-96.766;2023-02-11T05:41:41;8.57;;;6.43;;
44516;SDS011;30223;17.182;-96.766;2023-02-11T05:44:18;7.30;;;5.40;;
44516;SDS011;30223;17.182;-96.766;2023-02-11T05:46:46;11.05;;;6.43;;
44516;SDS011;30223;17.182;-96.766;2023-02-11T05:49:16;6.63;;;5.35;;
44516;SDS011;30223;17.182;-96.766;2023-02-11T05:51:44;9.98;;;5.20;;
44516;SDS011;30223;17.182;-96.766;2023-02-11T05:54:11;9.95;;;6.20;;
44516;SDS011;30223;17.182;-96.766;2023-02-11T05:56:42;8.52;;;6.47;;
44516;SDS011;30223;17.182;-96.766;2023-02-11T05:59:13;10.05;;;5.50;;
44516;SDS011;30223;17.182;-96.766;2023-02-11T06:01:43;8.55;;;6.10;;
44516;SDS011;30223;17.182;-96.766;2023-02-11T06:04:11;7.55;;;5.20;;
44516;SDS011;30223;17.182;-96.766;2023-02-11T06:06:47;8.05;;;4.88;;
44516;SDS011;30223;17.182;-96.766;2023-02-11T06:09:14;10.40;;;6.40;;
44516;SDS011;30223;17.182;-96.766;2023-02-11T06:11:41;10.68;;;6.25;;
44516;SDS011;30223;17.182;-96.766;2023-02-11T06:14:18;10.00;;;5.18;;
44516;SDS011;30223;17.182;-96.766;2023-02-11T06:16:45;8.43;;;5.63;;
44516;SDS011;30223;17.182;-96.766;2023-02-11T06:19:22;9.23;;;6.22;;
44516;SDS011;30223;17.182;-96.766;2023-02-11T06:21:49;9.73;;;6.10;;
44516;SDS011;30223;17.182;-96.766;2023-02-11T06:24:20;8.88;;;5.32;;
44516;SDS011;30223;17.182;-96.766;2023-02-11T06:26:48;8.65;;;6.13;;
44516;SDS011;30223;17.182;-96.766;2023-02-11T06:29:15;6.63;;;5.93;;
44516;SDS011;30223;17.182;-96.766;2023-02-11T06:31:43;9.05;;;5.63;;
44516;SDS011;30223;17.182;-96.766;2023-02-11T06:34:18;7.13;;;5.57;;
44516;SDS011;30223;17.182;-96.766;2023-02-11T06:36:51;9.90;;;4.85;;
44516;SDS011;30223;17.182;-96.766;2023-02-11T06:39:33;7.95;;;5.72;;
44516;SDS011;30223;17.182;-96.766;2023-02-11T06:42:05;6.40;;;4.88;;
44516;SDS011;30223;17.182;-96.766;2023-02-11T06:44:46;9.90;;;5.25;;
